彰化一整天代售商品

 ㄚ母滴雞湯      香純滴雞精
今日:(02-25):93    昨天:142    總計:428690
贊助網站→Paypal付款  便利收
關鍵字查詢:
第 6 頁(共 56 頁) 總筆數1665筆 頁次:2   3   4   5   [6]   7   8   9   10   11   ....

151  windows 2008 server如何開啟遠端桌面功能  (2016-07-27 15:55:17)(查看 340 - 224 (bot) - 116 - 248 (other) 次)
152  ESXI 連線過程出現錯誤(The VMRC console has disconnected.. attempting to reconnect)  (2016-07-27 14:24:47)(查看 463 - 300 (bot) - 163 - 503 (other) 次)
153  windows 2008 server產製「金鑰」  (2016-07-13 10:51:22)(查看 933 - 500 (bot) - 433 - 392 (other) 次)
154  OpenSSL在windows 2008 server出現版本不符合【未尚找到原因】  (2016-07-13 10:33:21)(查看 225 - 178 (bot) - 47 - 229 (other) 次)
155  FortiWeb匯入憑證  (2016-07-12 15:14:59)(查看 356 - 276 (bot) - 80 - 238 (other) 次)
156  windows 2003 server 匯出憑證  (2016-07-12 14:44:08)(查看 193 - 157 (bot) - 36 - 207 (other) 次)
157  blogger出現【含重複的標題標記的網頁】【尚未找到解法】  (2016-07-11 21:46:16)(查看 389 - 300 (bot) - 89 - 235 (other) 次)
158  如何利用peazip來解決中文檔案壓縮檔案會變成亂碼  (2016-07-11 20:19:01)(查看 218 - 178 (bot) - 40 - 221 (other) 次)
159  如何利用Excel製作出日曆型的待辦事項  (2016-07-11 09:24:04)(查看 365 - 220 (bot) - 145 - 278 (other) 次)
160  windows 2003 server 安裝伺服器憑證  (2016-07-07 15:12:59)(查看 414 - 295 (bot) - 119 - 238 (other) 次)


161  windows 2003 server 安裝根憑證  (2016-07-07 14:46:26)(查看 204 - 173 (bot) - 31 - 233 (other) 次)
162  windows 2003 server 安裝中繼憑證  (2016-07-07 14:44:31)(查看 249 - 174 (bot) - 75 - 173 (other) 次)
163  windows 2003 server 新增憑證管理單元  (2016-07-07 13:52:56)(查看 170 - 146 (bot) - 24 - 203 (other) 次)
164  憑證請求檔(CSR)上傳  (2016-07-07 11:39:54)(查看 233 - 175 (bot) - 58 - 259 (other) 次)
165  windows server 2003 產生「憑證請求檔(CSR)」  (2016-07-07 10:16:21)(查看 165 - 130 (bot) - 35 - 203 (other) 次)
166  Excel多條件查詢使用sumifs跟sumproduct  (2016-07-06 19:01:11)(查看 434 - 272 (bot) - 162 - 236 (other) 次)
167  竹北璽子牛肉麵斤餅專賣店  (2016-07-03 15:17:36)(查看 924 - 682 (bot) - 242 - 210 (other) 次)
168  湖口山丘上景觀咖啡館  (2016-06-29 21:38:57)(查看 929 - 681 (bot) - 248 - 247 (other) 次)
169  學科(21500)餐飲服務丙級題庫830題(所有題目)  (2016-06-29 20:29:29)(查看 196 - 167 (bot) - 29 - 223 (other) 次)
170  windows server 2012 R2安裝步驟  (2016-06-29 09:11:03)(查看 241 - 193 (bot) - 48 - 228 (other) 次)


171  vSphereClient如何使用ISO檔案安裝作業系統  (2016-06-29 09:00:36)(查看 211 - 181 (bot) - 30 - 199 (other) 次)
172  如何在Excel中顯示英文的星期  (2016-06-26 15:59:11)(查看 380 - 257 (bot) - 123 - 233 (other) 次)
173  如何快速將半型數字轉換成全型數字  (2016-06-24 15:35:10)(查看 393 - 255 (bot) - 138 - 216 (other) 次)
174  解決VS.NET二層下拉選單無法顯示  (2016-06-23 16:16:58)(查看 293 - 224 (bot) - 69 - 228 (other) 次)
175  Centos如何避免 Apache 網站的目錄內容顯示出來  (2016-06-22 13:51:53)(查看 438 - 333 (bot) - 105 - 205 (other) 次)
176  WordPress【外掛AddToAny】文章加入社群分享鈕LINE  (2016-06-21 16:39:25)(查看 841 - 718 (bot) - 123 - 237 (other) 次)
177  Excel使用edate計算是否满20歲  (2016-06-21 14:33:33)(查看 283 - 169 (bot) - 114 - 239 (other) 次)
178  如何還原有中文網址的超連結(URL Decoder/Encoder)  (2016-06-20 22:30:13)(查看 345 - 231 (bot) - 114 - 209 (other) 次)
179  如何在網頁上顯示圖表(雷達圖及長條圖)  (2016-06-15 11:02:47)(查看 511 - 310 (bot) - 201 - 276 (other) 次)
180  MOS Excel 2010 Expert 模擬練習  (2016-06-15 09:00:57)(查看 383 - 297 (bot) - 86 - 202 (other) 次)


查看 11719 - 8396 - 3323 - 7248 - 432369 次
第 6 頁(共 56 頁) 總筆數1665筆 頁次:2   3   4   5   [6]   7   8   9   10   11   ....